Time;durP1;ratioP1;P1;durP2;ratioP2;P2;SDS_P1;SDS_P2;PMS_P1;PMS_P2;Temp;Humidity;BMP_temperature;BMP_pressure;BME280_temperature;BME280_humidity;BME280_pressure;Samples;Min_cycle;Max_cycle;Signal;HPM_P1;HPM_P2
2023/11/11 00:00:02;;;;;;;1.60;0.90;;;7.40;85.80;;;8.98;60.36;95931.59;5011342;28;20045;-60
2023/11/11 00:02:30;;;;;;;2.47;0.97;;;7.40;86.00;;;9.03;60.24;95926.56;5010887;28;20057;-60
2023/11/11 00:04:58;;;;;;;2.10;1.10;;;7.40;85.90;;;9.04;60.25;95917.56;5011076;28;20053;-60
2023/11/11 00:07:26;;;;;;;2.87;1.10;;;7.40;85.90;;;9.04;60.27;95927.38;5009152;28;20058;-60
2023/11/11 00:09:54;;;;;;;3.40;1.20;;;7.30;86.40;;;9.08;60.17;95933.91;5010826;28;20038;-60
2023/11/11 00:12:21;;;;;;;3.00;2.03;;;7.40;86.70;;;9.05;60.47;95929.84;5010296;28;20056;-60
2023/11/11 00:14:50;;;;;;;2.10;1.73;;;7.40;86.80;;;9.02;60.38;95932.84;5011027;28;20049;-59
2023/11/11 00:17:18;;;;;;;3.77;1.63;;;7.30;87.50;;;9.07;60.30;95926.97;5009929;28;20057;-59
2023/11/11 00:19:47;;;;;;;4.30;1.87;;;7.30;87.80;;;9.15;60.02;95923.34;5010907;28;20038;-60
2023/11/11 00:22:14;;;;;;;1.63;1.07;;;7.40;87.30;;;9.18;60.15;95921.13;5010589;28;20042;-59
2023/11/11 00:24:44;;;;;;;1.20;1.00;;;7.50;87.00;;;9.23;60.12;95931.16;5011121;28;20049;-59
2023/11/11 00:27:14;;;;;;;2.43;1.43;;;7.50;86.90;;;9.22;60.18;95938.28;5011007;28;20095;-59
2023/11/11 00:29:42;;;;;;;3.37;2.40;;;7.40;86.90;;;9.20;60.31;95939.50;5003001;28;20392;-60
2023/11/11 00:32:09;;;;;;;1.57;1.40;;;7.40;88.00;;;9.19;60.18;95940.50;5009254;28;20050;-59
2023/11/11 00:34:39;;;;;;;1.17;1.07;;;7.40;88.20;;;9.17;60.47;95932.78;5008825;28;20050;-60
2023/11/11 00:37:07;;;;;;;5.37;1.00;;;7.40;88.10;;;9.01;61.35;95948.97;5000923;28;20064;-60
2023/11/11 00:39:34;;;;;;;1.27;0.83;;;7.30;88.80;;;9.05;61.27;95944.91;5008878;28;20491;-59
2023/11/11 00:42:02;;;;;;;1.90;0.90;;;7.30;89.60;;;8.99;61.32;95946.50;5009465;28;20503;-59
2023/11/11 00:44:30;;;;;;;1.77;1.00;;;7.30;89.00;;;9.02;61.30;95940.81;5009557;28;20050;-60
2023/11/11 00:46:58;;;;;;;3.30;0.70;;;7.30;88.70;;;9.01;61.52;95951.63;5009734;28;20053;-59
2023/11/11 00:49:25;;;;;;;1.37;0.60;;;7.40;88.00;;;8.93;61.87;95954.44;5009283;28;20058;-60
2023/11/11 00:51:55;;;;;;;0.57;0.57;;;7.40;88.10;;;8.99;61.65;95940.38;5009376;28;20503;-60
2023/11/11 00:54:22;;;;;;;0.50;0.50;;;7.40;88.30;;;8.93;61.98;95949.94;5013471;28;20066;-60
2023/11/11 00:56:51;;;;;;;0.50;0.50;;;7.40;88.80;;;9.00;61.82;95950.00;5013556;28;20042;-59
2023/11/11 00:59:19;;;;;;;0.43;0.43;;;7.40;88.80;;;8.93;62.18;95947.28;5014201;28;20414;-59
2023/11/11 01:01:46;;;;;;;0.60;0.60;;;7.40;88.10;;;8.96;62.08;95956.72;5014185;28;20046;-60
2023/11/11 01:04:14;;;;;;;1.10;0.77;;;7.50;88.70;;;8.81;62.49;95957.59;5012907;28;20060;-60
2023/11/11 01:06:42;;;;;;;2.67;0.80;;;7.40;87.70;;;8.81;62.20;95948.81;5012331;28;20515;-60
2023/11/11 01:09:13;;;;;;;0.57;0.57;;;7.40;86.70;;;8.96;61.95;95954.06;5012971;28;20056;-60
2023/11/11 01:11:41;;;;;;;0.70;0.70;;;7.50;86.30;;;8.74;62.22;95939.97;5013663;28;20530;-60
2023/11/11 01:14:09;;;;;;;0.60;0.60;;;7.50;85.30;;;8.60;61.74;95947.00;5012959;28;20065;-60
2023/11/11 01:16:37;;;;;;;0.47;0.47;;;7.40;83.10;;;8.72;61.55;95955.28;5012697;28;20392;-59
2023/11/11 01:19:05;;;;;;;0.70;0.70;;;7.50;82.50;;;8.63;61.43;95963.38;5013745;28;20482;-59
2023/11/11 01:21:32;;;;;;;0.67;0.60;;;7.50;82.20;;;8.56;61.51;95935.13;5012605;28;20057;-60
2023/11/11 01:24:00;;;;;;;1.17;0.70;;;7.40;82.60;;;8.34;61.25;95955.50;5014265;28;20411;-60
2023/11/11 01:26:28;;;;;;;1.70;0.70;;;7.30;80.80;;;8.16;61.15;95950.59;5013024;28;20525;-59
2023/11/11 01:28:55;;;;;;;0.60;0.60;;;7.20;80.50;;;8.04;61.88;95929.06;5012637;28;20057;-59
2023/11/11 01:31:23;;;;;;;0.73;0.63;;;7.20;81.20;;;8.05;62.19;95941.31;5012428;28;20064;-60
2023/11/11 01:33:51;;;;;;;0.50;0.50;;;7.20;81.40;;;7.90;62.29;95922.81;5012490;28;20060;-59
2023/11/11 01:36:19;;;;;;;0.50;0.50;;;7.20;80.80;;;7.89;62.29;95911.41;5012703;28;20534;-59
2023/11/11 01:38:48;;;;;;;0.80;0.60;;;7.10;80.70;;;7.99;62.07;95924.34;5013602;28;20037;-59
2023/11/11 01:41:17;;;;;;;0.80;0.70;;;7.10;81.10;;;7.83;62.19;95906.00;5012438;28;20080;-59
2023/11/11 01:43:45;;;;;;;2.00;0.80;;;7.10;81.20;;;7.71;61.78;95950.69;5013123;28;20148;-62
2023/11/11 01:46:13;;;;;;;1.23;0.87;;;7.10;79.40;;;7.62;61.80;95925.34;5012329;28;20399;-62
2023/11/11 01:48:42;;;;;;;1.47;0.60;;;7.10;78.40;;;7.64;62.19;95955.09;4995904;28;20054;-63
2023/11/11 01:51:11;;;;;;;0.50;0.50;;;7.10;78.90;;;7.59;62.85;95957.47;5012196;28;20038;-63
2023/11/11 01:53:39;;;;;;;2.07;0.57;;;7.10;79.70;;;7.49;63.09;95981.59;5013333;28;20049;-62
2023/11/11 01:56:10;;;;;;;0.60;0.60;;;7.00;81.90;;;7.53;63.61;95963.50;4995790;28;20041;-63
2023/11/11 01:58:39;;;;;;;1.83;0.67;;;7.00;82.30;;;7.46;62.77;95987.22;5011963;28;20053;-62
2023/11/11 02:01:07;;;;;;;3.50;0.70;;;6.90;80.60;;;7.49;63.45;95986.88;5012314;28;20050;-62
2023/11/11 02:03:37;;;;;;;0.40;0.40;;;6.90;81.80;;;7.39;64.12;95996.94;5010124;28;20418;-62
2023/11/11 02:06:09;;;;;;;0.80;0.67;;;6.80;83.10;;;7.49;64.01;96003.59;5012078;28;20050;-63
2023/11/11 02:08:37;;;;;;;0.93;0.80;;;6.80;84.40;;;7.46;64.36;96011.91;5011665;28;20054;-63
2023/11/11 02:11:06;;;;;;;0.50;0.50;;;6.90;84.50;;;7.30;65.25;96020.00;4995599;28;20165;-62
2023/11/11 02:13:35;;;;;;;1.10;0.67;;;6.80;85.30;;;7.49;64.54;96026.59;4995154;28;20427;-62
2023/11/11 02:16:06;;;;;;;0.60;0.60;;;6.90;85.20;;;7.36;65.52;96029.03;5012061;28;20037;-61
2023/11/11 02:18:34;;;;;;;0.70;0.60;;;6.80;86.90;;;7.41;65.49;96022.22;5011679;28;20076;-61
2023/11/11 02:21:02;;;;;;;0.60;0.53;;;6.70;86.80;;;7.41;65.14;96055.81;5012071;28;20038;-60
2023/11/11 02:23:34;;;;;;;3.10;0.70;;;6.70;86.70;;;7.42;65.90;96054.78;5011210;28;20042;-60
2023/11/11 02:26:04;;;;;;;0.70;0.60;;;6.60;89.10;;;7.12;66.82;96062.69;5013031;28;20034;-60
2023/11/11 02:28:31;;;;;;;0.70;0.60;;;6.50;90.30;;;7.05;67.29;96061.75;5011618;28;20048;-60
2023/11/11 02:30:59;;;;;;;0.60;0.60;;;6.40;91.20;;;6.83;67.79;96095.16;5012769;28;20038;-60
2023/11/11 02:33:27;;;;;;;0.80;0.67;;;6.20;91.90;;;6.86;67.77;96073.63;5010801;28;20426;-61
2023/11/11 02:35:56;;;;;;;1.77;0.63;;;6.10;94.30;;;6.72;69.92;96080.50;5011357;28;20046;-61
2023/11/11 02:38:23;;;;;;;3.47;1.20;;;6.10;96.60;;;6.73;69.28;96099.81;5012745;28;20041;-61
2023/11/11 02:40:51;;;;;;;0.60;0.60;;;6.00;98.50;;;6.61;69.68;96096.75;5011512;28;20435;-61
2023/11/11 02:43:18;;;;;;;0.80;0.80;;;5.90;99.90;;;6.63;70.01;96107.97;5011273;28;20105;-61
2023/11/11 02:45:46;;;;;;;1.23;0.77;;;5.80;99.90;;;6.66;70.61;96107.63;5011193;28;20050;-61
2023/11/11 02:48:14;;;;;;;0.70;0.60;;;5.70;99.90;;;6.80;70.27;96100.78;5011039;28;20045;-60
2023/11/11 02:50:43;;;;;;;1.07;0.60;;;5.80;99.90;;;6.74;71.57;96106.78;5011302;28;20518;-60
2023/11/11 02:53:11;;;;;;;2.77;1.10;;;5.80;99.90;;;6.69;71.08;96099.38;5010816;28;20046;-60
2023/11/11 02:55:38;;;;;;;2.47;1.10;;;5.70;99.90;;;6.79;70.76;96099.16;5012096;28;20046;-59
2023/11/11 02:58:06;;;;;;;7.37;1.47;;;5.90;99.90;;;6.72;72.18;96112.22;5010802;28;20109;-59
2023/11/11 03:00:36;;;;;;;1.57;1.40;;;6.00;99.90;;;6.79;71.55;96105.25;5010827;28;20050;-59
2023/11/11 03:03:04;;;;;;;1.30;1.07;;;6.00;99.90;;;6.76;71.94;96120.63;5011882;28;20517;-59
2023/11/11 03:05:33;;;;;;;1.30;0.93;;;6.00;99.90;;;6.62;73.23;96123.03;5010454;28;20550;-60
2023/11/11 03:08:00;;;;;;;2.90;1.20;;;6.10;99.90;;;6.67;72.06;96109.31;5011583;28;20042;-59
2023/11/11 03:10:28;;;;;;;1.73;1.20;;;6.10;99.90;;;6.64;72.28;96149.31;5012158;28;20065;-59
2023/11/11 03:12:58;;;;;;;1.43;1.00;;;6.10;99.90;;;6.69;72.57;96129.28;5009303;28;20046;-59
2023/11/11 03:15:26;;;;;;;5.23;1.30;;;6.20;99.90;;;6.81;71.96;96135.00;4993836;28;20045;-59
2023/11/11 03:17:53;;;;;;;1.63;1.40;;;6.20;99.90;;;6.88;71.19;96148.34;5010420;28;20045;-59
2023/11/11 03:20:21;;;;;;;2.13;0.90;;;6.20;99.90;;;6.97;71.37;96149.13;5010759;28;20061;-59
2023/11/11 03:22:49;;;;;;;2.33;1.30;;;6.20;99.90;;;6.80;70.96;96146.56;5010202;28;20073;-59
2023/11/11 03:25:16;;;;;;;1.43;1.17;;;6.20;99.90;;;6.72;71.33;96143.16;5010858;28;20049;-59
2023/11/11 03:27:44;;;;;;;1.50;1.07;;;6.20;99.90;;;6.70;71.61;96153.91;5010447;28;20438;-60
2023/11/11 03:30:13;;;;;;;2.43;1.40;;;6.20;99.90;;;6.81;71.25;96150.06;5010947;28;20057;-60
2023/11/11 03:32:41;;;;;;;1.30;1.13;;;6.20;99.90;;;6.84;71.31;96168.19;5010001;28;20064;-60
2023/11/11 03:35:08;;;;;;;2.90;1.40;;;6.20;99.90;;;6.98;70.84;96169.28;5011672;28;20045;-58
2023/11/11 03:37:36;;;;;;;1.17;1.00;;;6.30;99.90;;;6.90;71.61;96200.09;5011504;28;20068;-61
2023/11/11 03:40:06;;;;;;;1.90;1.33;;;6.20;99.80;;;7.00;70.44;96188.44;5010455;28;20426;-61
2023/11/11 03:42:34;;;;;;;2.57;1.47;;;6.30;99.90;;;6.84;71.04;96182.28;5009888;28;20050;-60
2023/11/11 03:45:07;;;;;;;1.80;1.50;;;6.30;99.00;;;6.85;71.56;96185.72;4994163;28;20049;-62
2023/11/11 03:47:36;;;;;;;1.83;1.37;;;6.30;99.00;;;6.80;71.92;96199.47;5011627;28;20463;-60
2023/11/11 03:50:06;;;;;;;1.40;1.00;;;6.30;98.90;;;6.77;71.30;96207.75;5011235;28;20042;-61
2023/11/11 03:52:34;;;;;;;2.00;1.60;;;6.30;98.30;;;7.04;70.88;96200.34;5009650;28;20050;-62
2023/11/11 03:55:01;;;;;;;1.70;1.30;;;6.50;98.70;;;7.14;70.68;96213.38;5008786;28;20046;-62
2023/11/11 03:57:29;;;;;;;2.60;1.43;;;6.50;97.10;;;7.13;70.70;96215.16;5010119;28;20094;-61
2023/11/11 03:59:56;;;;;;;1.90;1.40;;;6.50;96.30;;;7.20;69.71;96228.53;5009999;28;20037;-61
2023/11/11 04:02:25;;;;;;;1.63;1.37;;;6.60;96.60;;;7.22;69.46;96231.84;5009669;28;20061;-61
2023/11/11 04:04:53;;;;;;;1.90;1.70;;;6.60;96.10;;;7.10;70.00;96234.06;5009353;28;20054;-61
2023/11/11 04:07:23;;;;;;;6.57;1.77;;;6.50;96.90;;;7.15;69.84;96252.88;5001605;28;20046;-61
2023/11/11 04:09:53;;;;;;;2.20;1.60;;;6.50;97.10;;;7.30;70.29;96258.25;5010050;28;20433;-61
2023/11/11 04:12:20;;;;;;;5.00;2.40;;;6.60;97.20;;;7.25;69.83;96273.81;5009711;28;20054;-60
2023/11/11 04:14:48;;;;;;;1.97;1.50;;;6.50;97.00;;;7.33;69.87;96268.50;5009500;28;20049;-60
2023/11/11 04:17:17;;;;;;;2.37;1.60;;;6.60;97.10;;;7.48;69.75;96281.81;5010091;28;20523;-60
2023/11/11 04:19:46;;;;;;;1.97;1.63;;;6.60;97.00;;;7.55;69.12;96293.34;5009509;28;20045;-60
2023/11/11 04:22:14;;;;;;;1.80;1.20;;;6.70;97.50;;;7.32;69.91;96297.78;5009529;28;20050;-61
2023/11/11 04:24:41;;;;;;;2.10;1.43;;;6.60;97.80;;;7.48;69.14;96301.19;5009675;28;20053;-61
2023/11/11 04:27:09;;;;;;;2.03;1.80;;;6.60;97.90;;;7.48;69.70;96313.56;5011399;28;20046;-60
2023/11/11 04:29:37;;;;;;;3.70;1.90;;;6.60;97.60;;;7.44;69.73;96314.94;4997383;28;20050;-61
2023/11/11 04:32:05;;;;;;;2.63;1.83;;;6.50;98.00;;;7.52;69.08;96325.47;5006803;28;20522;-61
2023/11/11 04:34:33;;;;;;;1.97;1.77;;;6.60;97.40;;;7.46;69.40;96320.88;5013618;28;20050;-61
2023/11/11 04:37:01;;;;;;;3.37;2.47;;;6.50;97.20;;;7.46;69.05;96312.94;5014938;28;20041;-60
2023/11/11 04:39:28;;;;;;;3.07;2.03;;;6.60;97.60;;;7.63;68.42;96314.47;5014348;28;20057;-60
2023/11/11 04:41:59;;;;;;;3.23;1.90;;;6.60;96.50;;;7.56;68.50;96323.31;5013480;28;20061;-60
2023/11/11 04:44:27;;;;;;;2.37;1.77;;;6.60;96.40;;;7.63;68.48;96337.50;5014488;28;20502;-60
2023/11/11 04:46:55;;;;;;;2.07;1.80;;;6.60;96.00;;;7.45;68.30;96345.72;4997693;28;20061;-61
2023/11/11 04:49:22;;;;;;;4.37;2.10;;;6.50;95.30;;;7.53;68.26;96345.66;5014955;28;20056;-61
2023/11/11 04:51:50;;;;;;;3.43;2.30;;;6.60;95.00;;;7.53;68.28;96358.09;5013845;28;20438;-61
2023/11/11 04:54:18;;;;;;;3.27;1.80;;;6.60;94.70;;;7.56;68.31;96363.88;5013159;28;20305;-61
2023/11/11 04:56:45;;;;;;;2.97;1.60;;;6.60;95.70;;;7.55;67.81;96361.41;5014511;28;20422;-61
2023/11/11 04:59:13;;;;;;;6.33;2.00;;;6.60;94.50;;;7.65;67.92;96373.41;5013319;28;20049;-61
2023/11/11 05:01:41;;;;;;;2.37;1.93;;;6.60;94.40;;;7.71;67.45;96376.38;5014065;28;20418;-61
2023/11/11 05:04:09;;;;;;;3.00;2.17;;;6.60;94.30;;;7.51;67.96;96375.97;5010505;28;20057;-61
2023/11/11 05:06:39;;;;;;;5.50;2.63;;;6.50;95.50;;;7.52;67.84;96404.91;5014264;28;20057;-61
2023/11/11 05:09:06;;;;;;;3.47;2.20;;;6.50;95.80;;;7.40;68.46;96406.31;5014043;28;20046;-61
2023/11/11 05:11:34;;;;;;;4.10;2.17;;;6.50;95.70;;;7.39;68.30;96409.97;5014020;28;20164;-61
2023/11/11 05:14:05;;;;;;;4.10;2.10;;;6.40;95.30;;;7.18;68.43;96403.41;5013944;28;20511;-61
2023/11/11 05:16:39;;;;;;;2.63;1.90;;;6.40;95.20;;;7.20;68.57;96408.53;5013080;28;20046;-61
2023/11/11 05:19:08;;;;;;;3.37;2.23;;;6.40;95.00;;;7.23;67.66;96410.81;5005953;28;20392;-61
2023/11/11 05:21:37;;;;;;;4.83;2.03;;;6.40;93.60;;;7.20;68.26;96416.47;5012439;28;20046;-61
2023/11/11 05:24:05;;;;;;;3.20;2.50;;;6.40;93.60;;;7.44;67.19;96418.19;5012616;28;20517;-61
2023/11/11 05:26:33;;;;;;;2.43;1.93;;;6.40;93.90;;;7.50;67.17;96420.16;5013912;28;20046;-60
2023/11/11 05:29:01;;;;;;;3.57;1.63;;;6.40;93.80;;;7.53;66.71;96426.97;5012473;28;20077;-61
2023/11/11 05:31:31;;;;;;;3.87;2.43;;;6.40;93.10;;;7.60;66.73;96431.41;5013696;28;20092;-61
2023/11/11 05:33:59;;;;;;;2.67;1.83;;;6.40;93.60;;;7.55;66.82;96439.03;5011692;28;20046;-61
2023/11/11 05:36:27;;;;;;;3.00;2.13;;;6.40;92.50;;;7.44;66.34;96449.97;5013829;28;20049;-61
2023/11/11 05:38:55;;;;;;;2.40;1.70;;;6.30;92.70;;;7.45;66.53;96452.47;5013281;28;20057;-61
2023/11/11 05:41:23;;;;;;;2.73;1.90;;;6.30;93.40;;;7.46;66.48;96456.78;5013828;28;20052;-61
2023/11/11 05:43:51;;;;;;;3.73;2.13;;;6.30;92.80;;;7.51;65.97;96461.53;5012762;28;20411;-61
2023/11/11 05:46:18;;;;;;;2.73;1.90;;;6.30;92.60;;;7.62;66.00;96473.59;5013540;28;20050;-61
2023/11/11 05:48:46;;;;;;;5.57;2.17;;;6.40;92.70;;;7.59;66.25;96477.41;5013058;28;20057;-61
2023/11/11 05:51:14;;;;;;;2.30;2.03;;;6.40;92.20;;;7.64;66.07;96467.13;5004643;28;20057;-61
2023/11/11 05:53:42;;;;;;;3.13;1.80;;;6.40;92.50;;;7.51;65.76;96482.72;5012991;28;20046;-61
2023/11/11 05:56:10;;;;;;;4.17;2.40;;;6.30;91.40;;;7.55;65.65;96483.22;5013049;28;20041;-61
2023/11/11 05:58:37;;;;;;;3.97;2.40;;;6.40;91.80;;;7.55;66.05;96488.53;5013191;28;20048;-60
2023/11/11 06:01:05;;;;;;;2.47;2.00;;;6.40;91.60;;;7.64;65.55;96490.16;5013233;28;20041;-61
2023/11/11 06:03:33;;;;;;;5.30;2.07;;;6.40;91.90;;;7.49;65.91;96490.03;5013071;28;20056;-60
2023/11/11 06:06:02;;;;;;;2.77;2.27;;;6.30;91.00;;;7.49;65.95;96492.69;5013194;28;20418;-60
2023/11/11 06:08:30;;;;;;;4.30;2.40;;;6.40;91.20;;;7.51;65.75;96500.47;5012374;28;20052;-61
2023/11/11 06:10:58;;;;;;;3.80;2.77;;;6.40;90.90;;;7.40;66.11;96499.81;5012855;28;20053;-61
2023/11/11 06:13:26;;;;;;;4.00;2.50;;;6.30;91.60;;;7.34;65.82;96508.44;5012581;28;20045;-61
2023/11/11 06:15:54;;;;;;;3.63;2.03;;;6.30;90.20;;;7.34;65.76;96510.25;5011951;28;20042;-60
2023/11/11 06:18:21;;;;;;;5.03;2.20;;;6.30;91.10;;;7.44;65.93;96505.59;4995482;28;20042;-61
2023/11/11 06:20:49;;;;;;;5.50;2.40;;;6.40;90.80;;;7.48;66.10;96521.00;5012759;28;20046;-61
2023/11/11 06:23:17;;;;;;;3.23;2.00;;;6.30;91.80;;;7.60;65.77;96516.16;5012614;28;20225;-61
2023/11/11 06:25:47;;;;;;;3.67;2.30;;;6.40;92.10;;;7.67;65.56;96503.84;5012832;28;20471;-61
2023/11/11 06:28:16;;;;;;;6.53;3.60;;;6.40;92.20;;;7.52;65.61;96528.56;5004859;28;20415;-61
2023/11/11 06:30:44;;;;;;;4.00;2.23;;;6.40;90.60;;;7.48;65.80;96528.94;5013013;28;20506;-62
2023/11/11 06:33:12;;;;;;;2.47;1.70;;;6.40;91.70;;;7.51;65.72;96533.06;5011892;28;20060;-61
2023/11/11 06:35:39;;;;;;;4.20;2.43;;;6.40;90.60;;;7.45;65.42;96528.44;5012611;28;20049;-62
2023/11/11 06:38:07;;;;;;;2.70;1.93;;;6.40;90.70;;;7.40;65.63;96520.16;5012396;28;20041;-62
2023/11/11 06:40:34;;;;;;;2.53;1.70;;;6.30;91.40;;;7.34;65.70;96539.38;5011999;28;20097;-62
2023/11/11 06:43:02;;;;;;;5.23;2.20;;;6.30;90.20;;;7.35;65.84;96536.56;5012061;28;20411;-61
2023/11/11 06:45:32;;;;;;;3.50;1.80;;;6.30;90.60;;;7.39;65.75;96532.59;5012485;28;20046;-61
2023/11/11 06:48:00;;;;;;;2.67;2.43;;;6.20;89.90;;;7.44;65.33;96548.81;5012222;28;20499;-61
2023/11/11 06:50:28;;;;;;;3.73;2.40;;;6.20;91.60;;;7.35;65.68;96544.50;5011454;28;20049;-61
2023/11/11 06:52:56;;;;;;;2.67;2.07;;;6.20;91.00;;;7.44;65.05;96547.97;5011976;28;20406;-61
2023/11/11 06:55:23;;;;;;;2.87;1.97;;;6.20;91.10;;;7.43;64.80;96547.13;5011369;28;20434;-61
2023/11/11 06:57:51;;;;;;;3.50;2.17;;;6.20;90.90;;;7.53;64.81;96565.50;5012129;28;20046;-61
2023/11/11 07:00:20;;;;;;;2.70;2.47;;;6.20;90.80;;;7.37;65.22;96561.06;5011031;28;20046;-61
2023/11/11 07:02:48;;;;;;;3.00;2.17;;;6.20;90.10;;;7.46;65.02;96562.72;5011405;28;20045;-62
2023/11/11 07:05:15;;;;;;;2.97;2.07;;;6.30;89.30;;;7.49;64.81;96572.94;5011897;28;20060;-62
2023/11/11 07:07:43;;;;;;;3.50;2.40;;;6.30;89.10;;;7.55;64.71;96566.16;5011468;28;20060;-62
2023/11/11 07:10:11;;;;;;;3.93;2.03;;;6.40;88.30;;;7.53;64.33;96578.75;5012224;28;20403;-65
2023/11/11 07:12:39;;;;;;;3.00;2.07;;;6.30;88.80;;;7.38;64.75;96578.56;5011722;28;20495;-62
2023/11/11 07:15:10;;;;;;;2.97;2.47;;;6.30;88.10;;;7.26;64.72;96599.28;5011618;28;20053;-63
2023/11/11 07:17:41;;;;;;;3.40;2.33;;;6.20;88.10;;;7.14;65.19;96603.25;5011938;28;20052;-62
2023/11/11 07:20:12;;;;;;;3.80;2.73;;;6.30;88.10;;;7.24;64.69;96606.56;5010546;28;20413;-61
2023/11/11 07:22:39;;;;;;;3.57;2.77;;;6.30;88.50;;;7.44;64.31;96608.88;5011283;28;20042;-64
2023/11/11 07:25:09;;;;;;;4.43;2.37;;;6.40;87.80;;;7.38;64.79;96599.75;5010526;28;20046;-62
2023/11/11 07:27:37;;;;;;;3.47;2.53;;;6.30;88.30;;;7.49;64.64;96591.47;5011652;28;20050;-63
2023/11/11 07:30:09;;;;;;;3.70;2.63;;;6.30;89.20;;;7.26;64.62;96606.41;5011616;28;20406;-62
2023/11/11 07:32:37;;;;;;;5.77;3.27;;;6.20;88.30;;;7.45;64.32;96605.25;5011297;28;20046;-64
2023/11/11 07:35:19;;;;;;;6.53;2.97;;;6.30;88.60;;;7.58;63.77;96608.22;5010604;28;20400;-63
2023/11/11 07:37:47;;;;;;;5.40;2.63;;;6.30;86.90;;;7.59;64.00;96617.78;5011428;28;20045;-62
2023/11/11 07:40:15;;;;;;;4.50;2.67;;;6.40;88.20;;;7.55;64.07;96629.72;5011151;28;20046;-63
2023/11/11 07:42:43;;;;;;;5.57;2.77;;;6.40;87.10;;;7.46;63.79;96626.25;5010851;28;20042;-63
2023/11/11 07:45:11;;;;;;;4.67;2.37;;;6.30;86.70;;;7.51;64.13;96631.03;5010576;28;20061;-63
2023/11/11 07:47:41;;;;;;;4.27;2.60;;;6.30;87.30;;;7.58;63.59;96639.13;5010364;28;20054;-62
2023/11/11 07:50:10;;;;;;;4.50;2.53;;;6.30;87.80;;;7.66;63.34;96645.28;5010118;28;20539;-63
2023/11/11 07:52:37;;;;;;;3.07;2.60;;;6.50;86.70;;;7.85;63.41;96637.94;5010742;28;20499;-63
2023/11/11 07:55:06;;;;;;;4.70;2.97;;;6.50;87.00;;;7.91;63.06;96652.34;5011138;28;20042;-64
2023/11/11 07:57:33;;;;;;;4.00;2.53;;;6.60;85.50;;;7.78;63.07;96650.22;5010935;28;20037;-62
2023/11/11 08:00:06;;;;;;;3.93;2.10;;;6.60;86.00;;;7.62;62.89;96648.44;5010314;28;20539;-64
2023/11/11 08:02:36;;;;;;;4.37;2.40;;;6.50;84.80;;;7.86;62.73;96650.22;5001997;28;20046;-65
2023/11/11 08:05:04;;;;;;;4.63;2.90;;;6.60;85.80;;;7.87;62.86;96658.00;5008131;28;20045;-63
2023/11/11 08:07:31;;;;;;;5.27;2.80;;;6.60;84.80;;;7.82;62.97;96649.72;5011017;28;20037;-62
2023/11/11 08:09:59;;;;;;;6.03;2.37;;;6.60;85.20;;;7.87;62.22;96646.56;5009493;28;20499;-62
2023/11/11 08:12:27;;;;;;;5.83;2.90;;;6.60;83.90;;;7.89;62.88;96648.06;5010729;28;20400;-64
2023/11/11 08:14:57;;;;;;;4.00;2.27;;;6.70;86.60;;;7.69;62.33;96655.53;5011243;28;20045;-62
2023/11/11 08:17:25;;;;;;;2.67;1.70;;;6.60;82.60;;;7.62;62.47;96659.84;5003097;28;20081;-64
2023/11/11 08:19:53;;;;;;;6.13;2.30;;;6.60;82.30;;;7.88;62.71;96661.47;5010882;28;20046;-63
2023/11/11 08:22:21;;;;;;;4.30;2.10;;;6.70;83.50;;;7.86;62.36;96660.81;5009339;28;20045;-64
2023/11/11 08:24:49;;;;;;;3.93;2.40;;;6.80;82.10;;;7.85;62.06;96675.03;5009687;28;20049;-65
2023/11/11 08:27:18;;;;;;;3.00;2.13;;;6.90;81.30;;;7.87;61.83;96659.81;5010930;28;20050;-63
2023/11/11 08:29:47;;;;;;;3.77;2.40;;;6.90;81.90;;;8.00;61.64;96667.25;5010614;28;20049;-63
2023/11/11 08:32:15;;;;;;;2.97;2.30;;;6.90;81.00;;;8.02;61.79;96676.66;5010474;28;20492;-63
2023/11/11 08:34:43;;;;;;;4.00;2.20;;;6.90;81.50;;;8.08;61.39;96680.47;5010405;28;20056;-65
2023/11/11 08:37:10;;;;;;;3.23;2.10;;;6.90;81.10;;;7.99;61.05;96684.16;5009636;28;20049;-65
2023/11/11 08:39:38;;;;;;;4.27;2.23;;;6.90;80.90;;;8.01;61.25;96684.81;5010462;28;20487;-65
2023/11/11 08:42:06;;;;;;;3.27;2.60;;;6.90;81.30;;;7.76;61.69;96689.31;5010425;28;20042;-65
2023/11/11 08:44:34;;;;;;;3.83;2.30;;;6.80;81.00;;;8.06;61.82;96701.03;5009705;28;20502;-64
2023/11/11 08:47:01;;;;;;;5.23;2.37;;;6.90;82.70;;;8.09;61.26;96703.34;5010654;28;20045;-64
2023/11/11 08:49:29;;;;;;;4.20;3.17;;;6.90;81.50;;;8.16;60.90;96703.50;5010661;28;20053;-64
2023/11/11 08:52:15;;;;;;;3.60;2.57;;;7.00;80.30;;;7.94;60.62;96707.69;5009231;28;20046;-66
2023/11/11 08:54:43;;;;;;;4.17;3.47;;;6.90;79.20;;;8.11;60.81;96719.09;5004643;28;20545;-63
2023/11/11 08:57:11;;;;;;;5.40;2.53;;;7.00;79.90;;;8.06;60.01;96724.88;5010147;28;20502;-66
2023/11/11 08:59:39;;;;;;;3.93;2.80;;;7.00;77.80;;;8.25;60.41;96719.22;5007240;28;20053;-66
2023/11/11 09:02:07;;;;;;;3.10;2.20;;;7.10;79.50;;;8.10;60.18;96723.53;5009541;28;20042;-65
2023/11/11 09:04:35;;;;;;;2.83;2.13;;;7.00;79.00;;;8.09;60.01;96728.03;5010086;28;20471;-66
2023/11/11 09:07:03;;;;;;;3.83;2.30;;;7.00;78.40;;;8.27;59.71;96732.31;5009836;28;20083;-66
2023/11/11 09:09:31;;;;;;;5.03;2.10;;;7.00;78.90;;;8.32;59.53;96735.28;5007863;28;20414;-66
2023/11/11 09:11:59;;;;;;;3.53;2.17;;;7.00;78.00;;;8.37;59.60;96735.59;5008296;28;20387;-66
2023/11/11 09:14:33;;;;;;;2.60;1.80;;;7.00;79.10;;;8.40;59.55;96734.44;5009850;28;20056;-67
2023/11/11 09:17:02;;;;;;;2.55;1.95;;;7.10;78.90;;;8.48;58.76;96748.53;5013482;28;20046;-66
2023/11/11 09:19:31;;;;;;;3.87;2.20;;;7.10;76.90;;;8.44;59.52;96741.09;5012073;28;20158;-67
2023/11/11 09:21:58;;;;;;;4.57;2.40;;;7.10;78.50;;;8.59;59.12;96741.22;5012710;28;20045;-66
2023/11/11 09:24:26;;;;;;;4.00;2.53;;;7.20;78.30;;;8.56;58.36;96738.91;5012797;28;20293;-66
2023/11/11 09:26:55;;;;;;;1.63;1.53;;;7.20;76.30;;;8.28;58.49;96739.28;5013966;28;20038;-66
2023/11/11 09:29:25;;;;;;;2.70;2.07;;;7.10;76.50;;;8.20;58.73;96744.56;5013852;28;20080;-66
2023/11/11 09:31:53;;;;;;;5.30;2.93;;;7.00;76.00;;;8.11;58.55;96745.59;5013583;28;20046;-66
2023/11/11 09:34:22;;;;;;;4.13;2.23;;;7.00;76.70;;;8.22;58.73;96739.94;5013353;28;20041;-66
2023/11/11 09:36:50;;;;;;;4.33;2.30;;;7.10;76.00;;;8.28;57.91;96740.09;5013463;28;20091;-66
2023/11/11 09:39:18;;;;;;;2.17;1.47;;;7.10;74.50;;;7.95;57.91;96739.31;5013657;28;20057;-67
2023/11/11 09:41:46;;;;;;;3.83;2.50;;;7.00;74.40;;;7.96;58.26;96748.09;5013478;28;20052;-67
2023/11/11 09:44:14;;;;;;;5.43;2.27;;;7.00;74.60;;;8.12;58.13;96755.19;5012256;28;20054;-66
2023/11/11 09:46:55;;;;;;;2.57;1.93;;;7.10;74.60;;;8.24;58.05;96754.69;5013288;28;20442;-66
2023/11/11 09:49:27;;;;;;;4.83;2.40;;;7.20;74.40;;;8.37;57.88;96764.75;5012372;28;20052;-66
2023/11/11 09:52:00;;;;;;;2.40;1.77;;;7.30;74.60;;;8.27;57.73;96753.53;5013034;28;20377;-66
2023/11/11 09:54:29;;;;;;;4.53;2.60;;;7.20;73.90;;;8.36;57.35;96755.16;5013387;28;20050;-66
2023/11/11 09:56:58;;;;;;;3.20;2.10;;;7.20;74.00;;;8.19;57.43;96757.00;5013129;28;20038;-66
2023/11/11 09:59:29;;;;;;;3.87;2.03;;;7.10;74.10;;;8.24;57.65;96762.66;5011984;28;20038;-66
2023/11/11 10:01:57;;;;;;;2.33;1.50;;;7.20;73.90;;;8.40;57.28;96759.13;5013051;28;20069;-65
2023/11/11 10:04:25;;;;;;;4.70;2.03;;;7.30;73.80;;;8.65;57.46;96756.47;5012055;28;20044;-66
2023/11/11 10:06:52;;;;;;;5.30;1.87;;;7.50;73.50;;;8.82;57.34;96760.72;5011761;28;20049;-65
2023/11/11 10:09:20;;;;;;;2.17;1.63;;;7.60;74.00;;;8.74;56.67;96766.03;5006262;28;20050;-65
2023/11/11 10:11:50;;;;;;;5.20;1.80;;;7.60;71.40;;;8.57;55.61;96767.91;5004566;28;20057;-65
2023/11/11 10:14:21;;;;;;;4.77;2.13;;;7.50;70.00;;;8.75;56.11;96769.53;5008828;28;20057;-65
2023/11/11 10:16:52;;;;;;;3.20;1.97;;;7.60;71.20;;;8.85;56.08;96776.28;5008050;28;20435;-66
2023/11/11 10:19:22;;;;;;;2.57;1.80;;;7.60;71.30;;;8.41;56.44;96779.41;5008197;28;20042;-65
2023/11/11 10:21:56;;;;;;;5.83;2.00;;;7.40;71.50;;;8.66;56.54;96782.81;5004923;28;20049;-66
2023/11/11 10:24:25;;;;;;;3.20;1.90;;;7.50;72.00;;;8.80;55.80;96777.78;5005778;28;20046;-66
2023/11/11 10:26:53;;;;;;;3.87;2.13;;;7.60;70.20;;;8.91;55.34;96784.56;5006126;28;20296;-66
2023/11/11 10:29:21;;;;;;;2.20;1.70;;;7.60;70.20;;;8.94;55.19;96782.41;5004992;28;20045;-65
2023/11/11 10:31:49;;;;;;;2.53;1.93;;;7.70;70.40;;;8.67;55.56;96776.50;5007305;28;20053;-65
2023/11/11 10:34:16;;;;;;;3.20;1.83;;;7.60;69.10;;;8.93;55.43;96774.59;5005589;28;20050;-65
2023/11/11 10:36:46;;;;;;;4.93;2.03;;;7.60;70.80;;;8.97;55.17;96779.38;5004144;28;20398;-65